sensor_id;sensor_type;location;lat;lon;timestamp;P1;durP1;ratioP1;P2;durP2;ratioP2
54831;SDS011;40730;53.068;6.572;2023-05-20T00:00:39;14.38;;;4.20;;
54831;SDS011;40730;53.068;6.572;2023-05-20T00:03:05;13.95;;;4.95;;
54831;SDS011;40730;53.068;6.572;2023-05-20T00:05:31;8.77;;;4.10;;
54831;SDS011;40730;53.068;6.572;2023-05-20T00:07:56;11.45;;;4.18;;
54831;SDS011;40730;53.068;6.572;2023-05-20T00:10:22;11.00;;;4.40;;
54831;SDS011;40730;53.068;6.572;2023-05-20T00:12:47;11.18;;;4.28;;
54831;SDS011;40730;53.068;6.572;2023-05-20T00:15:13;15.55;;;4.65;;
54831;SDS011;40730;53.068;6.572;2023-05-20T00:17:39;16.50;;;4.88;;
54831;SDS011;40730;53.068;6.572;2023-05-20T00:20:04;11.52;;;4.35;;
54831;SDS011;40730;53.068;6.572;2023-05-20T00:22:31;12.25;;;4.35;;
54831;SDS011;40730;53.068;6.572;2023-05-20T00:24:56;10.70;;;4.72;;
54831;SDS011;40730;53.068;6.572;2023-05-20T00:27:22;10.20;;;4.40;;
54831;SDS011;40730;53.068;6.572;2023-05-20T00:29:48;9.65;;;4.57;;
54831;SDS011;40730;53.068;6.572;2023-05-20T00:32:13;13.75;;;4.78;;
54831;SDS011;40730;53.068;6.572;2023-05-20T00:34:39;10.13;;;4.07;;
54831;SDS011;40730;53.068;6.572;2023-05-20T00:37:07;8.82;;;4.43;;
54831;SDS011;40730;53.068;6.572;2023-05-20T00:39:32;13.30;;;4.97;;
54831;SDS011;40730;53.068;6.572;2023-05-20T00:41:58;10.40;;;4.68;;
54831;SDS011;40730;53.068;6.572;2023-05-20T00:44:26;17.88;;;6.03;;
54831;SDS011;40730;53.068;6.572;2023-05-20T00:46:52;10.80;;;4.53;;
54831;SDS011;40730;53.068;6.572;2023-05-20T00:49:19;14.93;;;4.68;;
54831;SDS011;40730;53.068;6.572;2023-05-20T00:51:46;11.00;;;4.80;;
54831;SDS011;40730;53.068;6.572;2023-05-20T00:54:11;18.75;;;4.82;;
54831;SDS011;40730;53.068;6.572;2023-05-20T00:56:37;14.63;;;5.05;;
54831;SDS011;40730;53.068;6.572;2023-05-20T00:59:03;13.10;;;4.13;;
54831;SDS011;40730;53.068;6.572;2023-05-20T01:01:29;12.88;;;4.80;;
54831;SDS011;40730;53.068;6.572;2023-05-20T01:03:55;9.55;;;5.38;;
54831;SDS011;40730;53.068;6.572;2023-05-20T01:06:20;12.18;;;5.38;;
54831;SDS011;40730;53.068;6.572;2023-05-20T01:08:46;10.02;;;4.97;;
54831;SDS011;40730;53.068;6.572;2023-05-20T01:11:24;11.75;;;4.53;;
54831;SDS011;40730;53.068;6.572;2023-05-20T01:13:57;12.18;;;4.60;;
54831;SDS011;40730;53.068;6.572;2023-05-20T01:16:27;15.38;;;5.03;;
54831;SDS011;40730;53.068;6.572;2023-05-20T01:18:58;10.13;;;5.50;;
54831;SDS011;40730;53.068;6.572;2023-05-20T01:21:26;7.18;;;4.55;;
54831;SDS011;40730;53.068;6.572;2023-05-20T01:23:54;8.93;;;5.10;;
54831;SDS011;40730;53.068;6.572;2023-05-20T01:26:20;11.32;;;4.40;;
54831;SDS011;40730;53.068;6.572;2023-05-20T01:28:45;15.00;;;4.50;;
54831;SDS011;40730;53.068;6.572;2023-05-20T01:31:17;13.02;;;5.35;;
54831;SDS011;40730;53.068;6.572;2023-05-20T01:36:15;9.88;;;4.82;;
54831;SDS011;40730;53.068;6.572;2023-05-20T01:38:43;11.07;;;6.03;;
54831;SDS011;40730;53.068;6.572;2023-05-20T01:41:10;12.25;;;5.15;;
54831;SDS011;40730;53.068;6.572;2023-05-20T01:43:37;11.98;;;5.18;;
54831;SDS011;40730;53.068;6.572;2023-05-20T01:46:04;13.85;;;4.97;;
54831;SDS011;40730;53.068;6.572;2023-05-20T01:48:30;12.80;;;5.72;;
54831;SDS011;40730;53.068;6.572;2023-05-20T01:50:56;13.57;;;5.03;;
54831;SDS011;40730;53.068;6.572;2023-05-20T01:53:21;8.30;;;4.60;;
54831;SDS011;40730;53.068;6.572;2023-05-20T01:55:47;9.32;;;4.30;;
54831;SDS011;40730;53.068;6.572;2023-05-20T01:58:13;10.98;;;3.92;;
54831;SDS011;40730;53.068;6.572;2023-05-20T02:00:38;10.20;;;5.18;;
54831;SDS011;40730;53.068;6.572;2023-05-20T02:03:04;9.70;;;4.20;;
54831;SDS011;40730;53.068;6.572;2023-05-20T02:05:29;8.00;;;4.70;;
54831;SDS011;40730;53.068;6.572;2023-05-20T02:07:55;10.32;;;4.38;;
54831;SDS011;40730;53.068;6.572;2023-05-20T02:10:20;12.68;;;4.70;;
54831;SDS011;40730;53.068;6.572;2023-05-20T02:12:46;10.70;;;4.25;;
54831;SDS011;40730;53.068;6.572;2023-05-20T02:15:13;10.52;;;4.63;;
54831;SDS011;40730;53.068;6.572;2023-05-20T02:17:39;10.20;;;4.63;;
54831;SDS011;40730;53.068;6.572;2023-05-20T02:20:07;8.07;;;4.30;;
54831;SDS011;40730;53.068;6.572;2023-05-20T02:22:34;9.30;;;4.70;;
54831;SDS011;40730;53.068;6.572;2023-05-20T02:25:00;15.80;;;5.15;;
54831;SDS011;40730;53.068;6.572;2023-05-20T02:27:26;10.02;;;4.70;;
54831;SDS011;40730;53.068;6.572;2023-05-20T02:29:51;8.32;;;3.88;;
54831;SDS011;40730;53.068;6.572;2023-05-20T02:32:17;9.85;;;4.55;;
54831;SDS011;40730;53.068;6.572;2023-05-20T02:34:44;12.05;;;4.32;;
54831;SDS011;40730;53.068;6.572;2023-05-20T02:37:10;9.50;;;4.13;;
54831;SDS011;40730;53.068;6.572;2023-05-20T02:39:35;11.73;;;5.13;;
54831;SDS011;40730;53.068;6.572;2023-05-20T02:42:01;6.90;;;4.30;;
54831;SDS011;40730;53.068;6.572;2023-05-20T02:44:28;14.15;;;4.13;;
54831;SDS011;40730;53.068;6.572;2023-05-20T02:46:54;7.57;;;4.30;;
54831;SDS011;40730;53.068;6.572;2023-05-20T02:49:20;7.85;;;4.32;;
54831;SDS011;40730;53.068;6.572;2023-05-20T02:51:45;7.28;;;3.33;;
54831;SDS011;40730;53.068;6.572;2023-05-20T02:54:11;7.28;;;3.90;;
54831;SDS011;40730;53.068;6.572;2023-05-20T02:56:36;11.10;;;4.03;;
54831;SDS011;40730;53.068;6.572;2023-05-20T02:59:02;7.80;;;3.67;;
54831;SDS011;40730;53.068;6.572;2023-05-20T03:01:28;10.52;;;4.43;;
54831;SDS011;40730;53.068;6.572;2023-05-20T03:03:54;8.10;;;4.45;;
54831;SDS011;40730;53.068;6.572;2023-05-20T03:06:20;9.32;;;3.42;;
54831;SDS011;40730;53.068;6.572;2023-05-20T03:08:45;5.97;;;3.60;;
54831;SDS011;40730;53.068;6.572;2023-05-20T03:11:11;9.35;;;3.78;;
54831;SDS011;40730;53.068;6.572;2023-05-20T03:13:36;11.60;;;4.35;;
54831;SDS011;40730;53.068;6.572;2023-05-20T03:16:02;9.68;;;4.00;;
54831;SDS011;40730;53.068;6.572;2023-05-20T03:18:28;9.70;;;4.00;;
54831;SDS011;40730;53.068;6.572;2023-05-20T03:20:53;9.52;;;3.83;;
54831;SDS011;40730;53.068;6.572;2023-05-20T03:23:19;4.97;;;3.47;;
54831;SDS011;40730;53.068;6.572;2023-05-20T03:25:45;5.50;;;3.42;;
54831;SDS011;40730;53.068;6.572;2023-05-20T03:28:12;6.50;;;3.03;;
54831;SDS011;40730;53.068;6.572;2023-05-20T03:30:37;7.38;;;3.50;;
54831;SDS011;40730;53.068;6.572;2023-05-20T03:33:03;5.43;;;3.40;;
54831;SDS011;40730;53.068;6.572;2023-05-20T03:35:29;8.75;;;3.13;;
54831;SDS011;40730;53.068;6.572;2023-05-20T03:37:55;6.95;;;3.50;;
54831;SDS011;40730;53.068;6.572;2023-05-20T03:40:21;9.05;;;3.22;;
54831;SDS011;40730;53.068;6.572;2023-05-20T03:42:47;6.63;;;3.42;;
54831;SDS011;40730;53.068;6.572;2023-05-20T03:45:14;9.25;;;2.85;;
54831;SDS011;40730;53.068;6.572;2023-05-20T03:47:39;7.22;;;2.50;;
54831;SDS011;40730;53.068;6.572;2023-05-20T03:50:05;7.32;;;3.40;;
54831;SDS011;40730;53.068;6.572;2023-05-20T03:52:31;7.40;;;3.00;;
54831;SDS011;40730;53.068;6.572;2023-05-20T03:54:58;5.00;;;2.85;;
54831;SDS011;40730;53.068;6.572;2023-05-20T03:57:24;5.30;;;2.38;;
54831;SDS011;40730;53.068;6.572;2023-05-20T03:59:50;8.25;;;2.40;;
54831;SDS011;40730;53.068;6.572;2023-05-20T04:02:15;4.70;;;2.58;;
54831;SDS011;40730;53.068;6.572;2023-05-20T04:04:41;6.38;;;1.95;;
54831;SDS011;40730;53.068;6.572;2023-05-20T04:07:07;6.07;;;2.00;;
54831;SDS011;40730;53.068;6.572;2023-05-20T04:09:33;8.05;;;1.80;;
54831;SDS011;40730;53.068;6.572;2023-05-20T04:11:59;4.82;;;2.08;;
54831;SDS011;40730;53.068;6.572;2023-05-20T04:14:25;5.97;;;2.20;;
54831;SDS011;40730;53.068;6.572;2023-05-20T04:16:50;5.15;;;1.80;;
54831;SDS011;40730;53.068;6.572;2023-05-20T04:19:16;3.60;;;1.55;;
54831;SDS011;40730;53.068;6.572;2023-05-20T04:21:45;5.10;;;1.55;;
54831;SDS011;40730;53.068;6.572;2023-05-20T04:24:11;4.03;;;1.75;;
54831;SDS011;40730;53.068;6.572;2023-05-20T04:26:36;6.85;;;1.85;;
54831;SDS011;40730;53.068;6.572;2023-05-20T04:29:03;3.35;;;1.20;;
54831;SDS011;40730;53.068;6.572;2023-05-20T04:31:29;5.97;;;1.60;;
54831;SDS011;40730;53.068;6.572;2023-05-20T04:33:55;5.70;;;1.50;;
54831;SDS011;40730;53.068;6.572;2023-05-20T04:36:21;2.83;;;0.85;;
54831;SDS011;40730;53.068;6.572;2023-05-20T04:38:52;4.63;;;1.10;;
54831;SDS011;40730;53.068;6.572;2023-05-20T04:41:18;2.47;;;0.82;;
54831;SDS011;40730;53.068;6.572;2023-05-20T04:43:44;2.75;;;0.77;;
54831;SDS011;40730;53.068;6.572;2023-05-20T04:46:09;5.82;;;1.13;;
54831;SDS011;40730;53.068;6.572;2023-05-20T04:48:35;3.67;;;1.20;;
54831;SDS011;40730;53.068;6.572;2023-05-20T04:51:01;6.38;;;1.10;;
54831;SDS011;40730;53.068;6.572;2023-05-20T04:53:27;1.65;;;0.68;;
54831;SDS011;40730;53.068;6.572;2023-05-20T04:55:54;2.65;;;0.57;;
54831;SDS011;40730;53.068;6.572;2023-05-20T04:58:21;3.92;;;0.80;;
54831;SDS011;40730;53.068;6.572;2023-05-20T05:00:48;2.42;;;0.60;;
54831;SDS011;40730;53.068;6.572;2023-05-20T05:03:15;3.22;;;0.73;;
54831;SDS011;40730;53.068;6.572;2023-05-20T05:05:41;3.38;;;0.65;;
54831;SDS011;40730;53.068;6.572;2023-05-20T05:08:07;3.05;;;0.63;;
54831;SDS011;40730;53.068;6.572;2023-05-20T05:10:34;2.60;;;0.70;;
54831;SDS011;40730;53.068;6.572;2023-05-20T05:13:00;3.45;;;0.85;;
54831;SDS011;40730;53.068;6.572;2023-05-20T05:15:26;1.70;;;0.40;;
54831;SDS011;40730;53.068;6.572;2023-05-20T05:17:52;3.15;;;0.60;;
54831;SDS011;40730;53.068;6.572;2023-05-20T05:20:18;3.10;;;0.60;;
54831;SDS011;40730;53.068;6.572;2023-05-20T05:22:44;3.25;;;0.60;;
54831;SDS011;40730;53.068;6.572;2023-05-20T05:25:10;3.00;;;0.43;;
54831;SDS011;40730;53.068;6.572;2023-05-20T05:27:36;2.53;;;0.50;;
54831;SDS011;40730;53.068;6.572;2023-05-20T05:30:03;2.00;;;0.50;;
54831;SDS011;40730;53.068;6.572;2023-05-20T05:32:30;1.98;;;0.60;;
54831;SDS011;40730;53.068;6.572;2023-05-20T05:34:56;2.17;;;0.60;;
54831;SDS011;40730;53.068;6.572;2023-05-20T05:37:22;1.23;;;0.40;;
54831;SDS011;40730;53.068;6.572;2023-05-20T05:39:47;2.95;;;0.60;;
54831;SDS011;40730;53.068;6.572;2023-05-20T05:42:13;2.70;;;0.43;;
54831;SDS011;40730;53.068;6.572;2023-05-20T05:44:39;1.92;;;0.47;;
54831;SDS011;40730;53.068;6.572;2023-05-20T05:47:05;2.97;;;0.63;;
54831;SDS011;40730;53.068;6.572;2023-05-20T05:49:31;2.38;;;0.40;;
54831;SDS011;40730;53.068;6.572;2023-05-20T05:51:58;2.70;;;0.43;;
54831;SDS011;40730;53.068;6.572;2023-05-20T05:54:23;5.22;;;0.40;;
54831;SDS011;40730;53.068;6.572;2023-05-20T05:56:52;0.98;;;0.45;;
54831;SDS011;40730;53.068;6.572;2023-05-20T05:59:20;1.10;;;0.30;;
54831;SDS011;40730;53.068;6.572;2023-05-20T06:01:46;1.98;;;0.28;;
54831;SDS011;40730;53.068;6.572;2023-05-20T06:04:12;1.60;;;0.30;;
54831;SDS011;40730;53.068;6.572;2023-05-20T06:06:37;1.30;;;0.30;;
54831;SDS011;40730;53.068;6.572;2023-05-20T06:09:03;2.30;;;0.65;;
54831;SDS011;40730;53.068;6.572;2023-05-20T06:11:29;1.65;;;0.43;;
54831;SDS011;40730;53.068;6.572;2023-05-20T06:13:54;1.88;;;0.45;;
54831;SDS011;40730;53.068;6.572;2023-05-20T06:16:20;2.15;;;0.38;;
54831;SDS011;40730;53.068;6.572;2023-05-20T06:18:46;1.88;;;0.35;;
54831;SDS011;40730;53.068;6.572;2023-05-20T06:21:14;3.55;;;0.57;;
54831;SDS011;40730;53.068;6.572;2023-05-20T06:23:40;2.65;;;0.30;;
54831;SDS011;40730;53.068;6.572;2023-05-20T06:26:05;2.35;;;0.30;;
54831;SDS011;40730;53.068;6.572;2023-05-20T06:28:31;1.80;;;0.30;;
54831;SDS011;40730;53.068;6.572;2023-05-20T06:30:56;3.63;;;0.40;;
54831;SDS011;40730;53.068;6.572;2023-05-20T06:33:22;0.95;;;0.30;;
54831;SDS011;40730;53.068;6.572;2023-05-20T06:35:53;2.58;;;0.30;;
54831;SDS011;40730;53.068;6.572;2023-05-20T06:38:19;1.77;;;0.40;;
54831;SDS011;40730;53.068;6.572;2023-05-20T06:40:45;4.07;;;0.73;;
54831;SDS011;40730;53.068;6.572;2023-05-20T06:43:11;2.05;;;0.20;;
54831;SDS011;40730;53.068;6.572;2023-05-20T06:45:38;0.63;;;0.20;;
54831;SDS011;40730;53.068;6.572;2023-05-20T06:48:04;1.48;;;0.25;;
54831;SDS011;40730;53.068;6.572;2023-05-20T06:50:30;1.98;;;0.30;;
54831;SDS011;40730;53.068;6.572;2023-05-20T06:52:55;3.25;;;0.30;;
54831;SDS011;40730;53.068;6.572;2023-05-20T06:55:21;1.33;;;0.30;;
54831;SDS011;40730;53.068;6.572;2023-05-20T06:57:47;1.10;;;0.20;;
54831;SDS011;40730;53.068;6.572;2023-05-20T07:00:12;2.03;;;0.28;;
54831;SDS011;40730;53.068;6.572;2023-05-20T07:02:38;3.17;;;0.32;;
54831;SDS011;40730;53.068;6.572;2023-05-20T07:05:04;4.90;;;0.30;;
54831;SDS011;40730;53.068;6.572;2023-05-20T07:07:30;1.55;;;0.30;;
54831;SDS011;40730;53.068;6.572;2023-05-20T07:09:56;1.23;;;0.30;;
54831;SDS011;40730;53.068;6.572;2023-05-20T07:12:22;1.00;;;0.20;;
54831;SDS011;40730;53.068;6.572;2023-05-20T07:14:48;1.05;;;0.20;;
54831;SDS011;40730;53.068;6.572;2023-05-20T07:17:13;1.85;;;0.65;;
54831;SDS011;40730;53.068;6.572;2023-05-20T07:19:39;1.20;;;0.20;;
54831;SDS011;40730;53.068;6.572;2023-05-20T07:22:05;1.05;;;0.32;;
54831;SDS011;40730;53.068;6.572;2023-05-20T07:24:31;3.35;;;0.32;;
54831;SDS011;40730;53.068;6.572;2023-05-20T07:26:56;1.63;;;0.30;;
54831;SDS011;40730;53.068;6.572;2023-05-20T07:29:22;2.15;;;0.30;;
54831;SDS011;40730;53.068;6.572;2023-05-20T07:31:48;5.00;;;0.30;;
54831;SDS011;40730;53.068;6.572;2023-05-20T07:34:13;2.05;;;0.25;;
54831;SDS011;40730;53.068;6.572;2023-05-20T07:36:39;2.10;;;0.25;;
54831;SDS011;40730;53.068;6.572;2023-05-20T07:39:04;2.08;;;0.32;;
54831;SDS011;40730;53.068;6.572;2023-05-20T07:41:30;2.17;;;0.40;;
54831;SDS011;40730;53.068;6.572;2023-05-20T07:43:56;1.80;;;0.40;;
54831;SDS011;40730;53.068;6.572;2023-05-20T07:46:21;1.95;;;0.30;;
54831;SDS011;40730;53.068;6.572;2023-05-20T07:48:47;1.10;;;0.30;;
54831;SDS011;40730;53.068;6.572;2023-05-20T07:51:12;1.42;;;0.30;;
54831;SDS011;40730;53.068;6.572;2023-05-20T07:53:38;1.20;;;0.40;;
54831;SDS011;40730;53.068;6.572;2023-05-20T07:56:04;3.45;;;0.35;;
54831;SDS011;40730;53.068;6.572;2023-05-20T07:58:30;2.15;;;0.30;;
54831;SDS011;40730;53.068;6.572;2023-05-20T08:00:56;1.52;;;0.30;;
54831;SDS011;40730;53.068;6.572;2023-05-20T08:03:21;1.80;;;0.40;;
54831;SDS011;40730;53.068;6.572;2023-05-20T08:05:47;1.92;;;0.40;;
54831;SDS011;40730;53.068;6.572;2023-05-20T08:08:13;3.80;;;0.40;;
54831;SDS011;40730;53.068;6.572;2023-05-20T08:10:40;2.10;;;0.30;;
54831;SDS011;40730;53.068;6.572;2023-05-20T08:13:05;2.35;;;0.30;;
54831;SDS011;40730;53.068;6.572;2023-05-20T08:15:31;3.05;;;0.30;;
54831;SDS011;40730;53.068;6.572;2023-05-20T08:17:57;2.38;;;0.50;;
54831;SDS011;40730;53.068;6.572;2023-05-20T08:20:22;2.45;;;0.28;;
54831;SDS011;40730;53.068;6.572;2023-05-20T08:22:50;1.33;;;0.38;;
54831;SDS011;40730;53.068;6.572;2023-05-20T08:25:16;1.80;;;0.40;;
54831;SDS011;40730;53.068;6.572;2023-05-20T08:27:41;2.60;;;0.30;;
54831;SDS011;40730;53.068;6.572;2023-05-20T08:30:08;1.73;;;0.43;;
54831;SDS011;40730;53.068;6.572;2023-05-20T08:32:34;3.90;;;0.47;;
54831;SDS011;40730;53.068;6.572;2023-05-20T08:35:00;1.05;;;0.30;;
54831;SDS011;40730;53.068;6.572;2023-05-20T08:37:27;2.80;;;0.40;;
54831;SDS011;40730;53.068;6.572;2023-05-20T08:39:53;3.40;;;0.40;;
54831;SDS011;40730;53.068;6.572;2023-05-20T08:42:20;3.67;;;0.40;;
54831;SDS011;40730;53.068;6.572;2023-05-20T08:44:51;1.15;;;0.45;;
54831;SDS011;40730;53.068;6.572;2023-05-20T08:47:20;0.98;;;0.30;;
54831;SDS011;40730;53.068;6.572;2023-05-20T08:49:49;1.90;;;0.63;;
54831;SDS011;40730;53.068;6.572;2023-05-20T08:52:16;2.65;;;0.40;;
54831;SDS011;40730;53.068;6.572;2023-05-20T08:54:46;2.10;;;0.40;;
54831;SDS011;40730;53.068;6.572;2023-05-20T08:57:13;1.63;;;0.55;;
54831;SDS011;40730;53.068;6.572;2023-05-20T08:59:42;1.35;;;0.40;;
54831;SDS011;40730;53.068;6.572;2023-05-20T09:02:09;4.25;;;0.70;;
54831;SDS011;40730;53.068;6.572;2023-05-20T09:04:35;2.55;;;0.50;;
54831;SDS011;40730;53.068;6.572;2023-05-20T09:07:01;2.00;;;0.60;;
54831;SDS011;40730;53.068;6.572;2023-05-20T09:09:28;1.23;;;0.50;;
54831;SDS011;40730;53.068;6.572;2023-05-20T09:11:54;2.80;;;0.35;;
54831;SDS011;40730;53.068;6.572;2023-05-20T09:14:20;1.80;;;0.60;;
54831;SDS011;40730;53.068;6.572;2023-05-20T09:16:46;1.73;;;0.38;;
54831;SDS011;40730;53.068;6.572;2023-05-20T09:19:13;2.83;;;0.30;;
54831;SDS011;40730;53.068;6.572;2023-05-20T09:21:40;1.83;;;0.40;;
54831;SDS011;40730;53.068;6.572;2023-05-20T09:24:06;3.28;;;0.50;;
54831;SDS011;40730;53.068;6.572;2023-05-20T09:26:32;2.10;;;0.40;;
54831;SDS011;40730;53.068;6.572;2023-05-20T09:28:58;4.30;;;0.70;;
54831;SDS011;40730;53.068;6.572;2023-05-20T09:31:27;1.85;;;0.47;;
54831;SDS011;40730;53.068;6.572;2023-05-20T09:33:55;2.88;;;0.40;;
54831;SDS011;40730;53.068;6.572;2023-05-20T09:36:21;3.25;;;0.73;;
54831;SDS011;40730;53.068;6.572;2023-05-20T09:38:49;2.83;;;0.50;;
54831;SDS011;40730;53.068;6.572;2023-05-20T09:41:20;1.02;;;0.45;;
54831;SDS011;40730;53.068;6.572;2023-05-20T09:43:48;1.75;;;0.40;;
54831;SDS011;40730;53.068;6.572;2023-05-20T09:46:15;2.17;;;0.80;;
54831;SDS011;40730;53.068;6.572;2023-05-20T09:48:41;1.45;;;0.50;;
54831;SDS011;40730;53.068;6.572;2023-05-20T09:51:08;1.92;;;0.50;;
54831;SDS011;40730;53.068;6.572;2023-05-20T09:53:36;2.55;;;0.40;;
54831;SDS011;40730;53.068;6.572;2023-05-20T09:56:01;1.38;;;0.73;;
54831;SDS011;40730;53.068;6.572;2023-05-20T09:58:28;2.47;;;0.47;;
54831;SDS011;40730;53.068;6.572;2023-05-20T10:00:54;3.53;;;0.60;;
54831;SDS011;40730;53.068;6.572;2023-05-20T10:03:20;2.20;;;0.60;;
54831;SDS011;40730;53.068;6.572;2023-05-20T10:05:51;2.63;;;0.60;;
54831;SDS011;40730;53.068;6.572;2023-05-20T10:11:34;2.38;;;0.50;;
54831;SDS011;40730;53.068;6.572;2023-05-20T10:17:06;2.05;;;0.57;;
54831;SDS011;40730;53.068;6.572;2023-05-20T10:19:37;2.00;;;0.50;;
54831;SDS011;40730;53.068;6.572;2023-05-20T10:22:04;2.35;;;0.60;;
54831;SDS011;40730;53.068;6.572;2023-05-20T10:24:36;3.70;;;0.95;;
54831;SDS011;40730;53.068;6.572;2023-05-20T10:27:07;2.35;;;0.70;;
54831;SDS011;40730;53.068;6.572;2023-05-20T10:32:08;1.75;;;0.55;;
54831;SDS011;40730;53.068;6.572;2023-05-20T10:34:43;2.42;;;0.50;;
54831;SDS011;40730;53.068;6.572;2023-05-20T10:37:19;4.32;;;0.82;;
54831;SDS011;40730;53.068;6.572;2023-05-20T10:39:48;2.75;;;0.55;;
54831;SDS011;40730;53.068;6.572;2023-05-20T10:42:13;3.70;;;0.85;;
54831;SDS011;40730;53.068;6.572;2023-05-20T10:44:46;4.25;;;0.70;;
54831;SDS011;40730;53.068;6.572;2023-05-20T10:47:12;3.45;;;0.90;;
54831;SDS011;40730;53.068;6.572;2023-05-20T10:49:44;3.28;;;0.63;;
54831;SDS011;40730;53.068;6.572;2023-05-20T10:52:18;2.13;;;0.40;;
54831;SDS011;40730;53.068;6.572;2023-05-20T10:54:53;2.10;;;0.45;;
54831;SDS011;40730;53.068;6.572;2023-05-20T10:57:20;2.42;;;0.50;;
54831;SDS011;40730;53.068;6.572;2023-05-20T10:59:45;1.65;;;0.60;;
54831;SDS011;40730;53.068;6.572;2023-05-20T11:02:11;2.28;;;0.80;;
54831;SDS011;40730;53.068;6.572;2023-05-20T11:04:43;1.75;;;0.60;;
54831;SDS011;40730;53.068;6.572;2023-05-20T11:07:10;1.30;;;0.40;;
54831;SDS011;40730;53.068;6.572;2023-05-20T11:09:36;1.73;;;0.50;;
54831;SDS011;40730;53.068;6.572;2023-05-20T11:12:02;2.42;;;0.52;;
54831;SDS011;40730;53.068;6.572;2023-05-20T11:14:28;1.35;;;0.60;;
54831;SDS011;40730;53.068;6.572;2023-05-20T11:16:57;3.33;;;0.50;;
54831;SDS011;40730;53.068;6.572;2023-05-20T11:19:23;1.67;;;0.60;;
54831;SDS011;40730;53.068;6.572;2023-05-20T11:21:49;2.22;;;0.70;;
54831;SDS011;40730;53.068;6.572;2023-05-20T11:24:21;1.40;;;0.50;;
54831;SDS011;40730;53.068;6.572;2023-05-20T11:29:17;4.60;;;0.63;;
54831;SDS011;40730;53.068;6.572;2023-05-20T11:31:44;1.13;;;0.40;;
54831;SDS011;40730;53.068;6.572;2023-05-20T11:34:11;3.72;;;0.70;;
54831;SDS011;40730;53.068;6.572;2023-05-20T11:36:40;2.65;;;0.45;;
54831;SDS011;40730;53.068;6.572;2023-05-20T11:39:08;1.38;;;0.40;;
54831;SDS011;40730;53.068;6.572;2023-05-20T11:41:34;3.75;;;0.60;;
54831;SDS011;40730;53.068;6.572;2023-05-20T11:44:00;2.03;;;0.68;;
54831;SDS011;40730;53.068;6.572;2023-05-20T11:46:26;2.53;;;0.60;;
54831;SDS011;40730;53.068;6.572;2023-05-20T11:48:52;1.23;;;0.60;;
54831;SDS011;40730;53.068;6.572;2023-05-20T11:51:21;2.80;;;0.50;;
54831;SDS011;40730;53.068;6.572;2023-05-20T11:53:48;1.55;;;0.50;;
54831;SDS011;40730;53.068;6.572;2023-05-20T11:56:14;2.25;;;0.40;;
54831;SDS011;40730;53.068;6.572;2023-05-20T11:58:40;3.85;;;0.38;;
54831;SDS011;40730;53.068;6.572;2023-05-20T12:01:08;2.10;;;0.43;;
54831;SDS011;40730;53.068;6.572;2023-05-20T12:03:34;1.20;;;0.40;;
54831;SDS011;40730;53.068;6.572;2023-05-20T12:06:01;2.85;;;0.50;;
54831;SDS011;40730;53.068;6.572;2023-05-20T12:08:27;1.70;;;0.40;;
54831;SDS011;40730;53.068;6.572;2023-05-20T12:10:53;3.92;;;0.65;;
54831;SDS011;40730;53.068;6.572;2023-05-20T12:13:18;1.23;;;0.40;;
54831;SDS011;40730;53.068;6.572;2023-05-20T12:15:44;1.83;;;0.95;;
54831;SDS011;40730;53.068;6.572;2023-05-20T12:18:09;1.33;;;0.40;;
54831;SDS011;40730;53.068;6.572;2023-05-20T12:20:35;5.18;;;0.50;;
54831;SDS011;40730;53.068;6.572;2023-05-20T12:23:01;3.85;;;0.50;;
54831;SDS011;40730;53.068;6.572;2023-05-20T12:25:27;5.95;;;0.50;;
54831;SDS011;40730;53.068;6.572;2023-05-20T12:27:54;0.82;;;0.25;;
54831;SDS011;40730;53.068;6.572;2023-05-20T12:30:20;1.67;;;0.30;;
54831;SDS011;40730;53.068;6.572;2023-05-20T12:32:47;1.20;;;0.40;;
54831;SDS011;40730;53.068;6.572;2023-05-20T12:35:16;2.80;;;0.47;;
54831;SDS011;40730;53.068;6.572;2023-05-20T12:37:43;4.20;;;0.70;;
54831;SDS011;40730;53.068;6.572;2023-05-20T12:40:09;2.72;;;0.40;;
54831;SDS011;40730;53.068;6.572;2023-05-20T12:42:40;2.85;;;0.45;;
54831;SDS011;40730;53.068;6.572;2023-05-20T12:45:06;2.30;;;0.65;;
54831;SDS011;40730;53.068;6.572;2023-05-20T12:47:33;1.70;;;0.57;;
54831;SDS011;40730;53.068;6.572;2023-05-20T12:49:59;3.33;;;0.47;;
54831;SDS011;40730;53.068;6.572;2023-05-20T12:52:25;3.00;;;0.60;;
54831;SDS011;40730;53.068;6.572;2023-05-20T12:54:54;4.45;;;0.45;;
54831;SDS011;40730;53.068;6.572;2023-05-20T12:57:21;3.22;;;0.47;;
54831;SDS011;40730;53.068;6.572;2023-05-20T12:59:47;2.50;;;0.55;;
54831;SDS011;40730;53.068;6.572;2023-05-20T13:02:13;2.33;;;0.70;;
54831;SDS011;40730;53.068;6.572;2023-05-20T13:04:39;3.75;;;0.50;;
54831;SDS011;40730;53.068;6.572;2023-05-20T13:07:04;2.70;;;0.40;;
54831;SDS011;40730;53.068;6.572;2023-05-20T13:09:30;2.88;;;0.50;;
54831;SDS011;40730;53.068;6.572;2023-05-20T13:11:57;3.33;;;0.63;;
54831;SDS011;40730;53.068;6.572;2023-05-20T13:14:22;2.33;;;0.32;;
54831;SDS011;40730;53.068;6.572;2023-05-20T13:16:48;2.97;;;0.65;;
54831;SDS011;40730;53.068;6.572;2023-05-20T13:19:18;1.73;;;0.40;;
54831;SDS011;40730;53.068;6.572;2023-05-20T13:21:44;1.67;;;0.80;;
54831;SDS011;40730;53.068;6.572;2023-05-20T13:24:09;4.97;;;0.60;;
54831;SDS011;40730;53.068;6.572;2023-05-20T13:26:35;5.50;;;0.50;;
54831;SDS011;40730;53.068;6.572;2023-05-20T13:29:01;2.42;;;0.52;;
54831;SDS011;40730;53.068;6.572;2023-05-20T13:31:26;2.10;;;0.52;;
54831;SDS011;40730;53.068;6.572;2023-05-20T13:33:52;0.88;;;0.40;;
54831;SDS011;40730;53.068;6.572;2023-05-20T13:36:19;2.95;;;0.43;;
54831;SDS011;40730;53.068;6.572;2023-05-20T13:38:45;3.85;;;0.57;;
54831;SDS011;40730;53.068;6.572;2023-05-20T13:41:10;1.98;;;0.50;;
54831;SDS011;40730;53.068;6.572;2023-05-20T13:43:36;1.70;;;0.55;;
54831;SDS011;40730;53.068;6.572;2023-05-20T13:46:01;1.45;;;0.50;;
54831;SDS011;40730;53.068;6.572;2023-05-20T13:48:27;7.25;;;0.70;;
54831;SDS011;40730;53.068;6.572;2023-05-20T13:50:53;1.27;;;0.40;;
54831;SDS011;40730;53.068;6.572;2023-05-20T13:53:19;3.42;;;0.60;;
54831;SDS011;40730;53.068;6.572;2023-05-20T13:55:44;3.60;;;0.60;;
54831;SDS011;40730;53.068;6.572;2023-05-20T13:58:10;2.03;;;0.47;;
54831;SDS011;40730;53.068;6.572;2023-05-20T14:00:36;1.70;;;0.40;;
54831;SDS011;40730;53.068;6.572;2023-05-20T14:03:02;2.75;;;0.70;;
54831;SDS011;40730;53.068;6.572;2023-05-20T14:05:33;1.85;;;0.60;;
54831;SDS011;40730;53.068;6.572;2023-05-20T14:07:59;2.78;;;0.68;;
54831;SDS011;40730;53.068;6.572;2023-05-20T14:10:25;5.47;;;0.77;;
54831;SDS011;40730;53.068;6.572;2023-05-20T14:12:52;2.72;;;0.50;;
54831;SDS011;40730;53.068;6.572;2023-05-20T14:15:18;2.40;;;0.40;;
54831;SDS011;40730;53.068;6.572;2023-05-20T14:17:44;4.75;;;0.60;;
54831;SDS011;40730;53.068;6.572;2023-05-20T14:20:10;1.10;;;0.75;;
54831;SDS011;40730;53.068;6.572;2023-05-20T14:22:36;2.38;;;0.50;;
54831;SDS011;40730;53.068;6.572;2023-05-20T14:25:01;2.53;;;0.63;;
54831;SDS011;40730;53.068;6.572;2023-05-20T14:27:28;5.03;;;0.50;;
54831;SDS011;40730;53.068;6.572;2023-05-20T14:29:54;1.52;;;0.40;;
54831;SDS011;40730;53.068;6.572;2023-05-20T14:32:20;4.25;;;0.60;;
54831;SDS011;40730;53.068;6.572;2023-05-20T14:34:45;2.08;;;0.60;;
54831;SDS011;40730;53.068;6.572;2023-05-20T14:37:11;2.67;;;0.60;;
54831;SDS011;40730;53.068;6.572;2023-05-20T14:39:37;1.42;;;0.40;;
54831;SDS011;40730;53.068;6.572;2023-05-20T14:42:03;3.75;;;0.55;;
54831;SDS011;40730;53.068;6.572;2023-05-20T14:44:29;2.85;;;0.65;;
54831;SDS011;40730;53.068;6.572;2023-05-20T14:46:55;7.97;;;1.63;;
54831;SDS011;40730;53.068;6.572;2023-05-20T14:49:21;1.60;;;0.40;;
54831;SDS011;40730;53.068;6.572;2023-05-20T14:51:47;1.75;;;0.45;;
54831;SDS011;40730;53.068;6.572;2023-05-20T14:54:13;5.47;;;0.60;;